sensor_id;sensor_type;location;lat;lon;timestamp;P1;durP1;ratioP1;P2;durP2;ratioP2
24663;SDS011;12791;50.992;13.788;2023-08-31T00:00:43;3.65;;;3.35;;
24663;SDS011;12791;50.992;13.788;2023-08-31T00:03:10;4.03;;;3.65;;
24663;SDS011;12791;50.992;13.788;2023-08-31T00:05:40;3.85;;;3.55;;
24663;SDS011;12791;50.992;13.788;2023-08-31T00:08:07;4.43;;;4.03;;
24663;SDS011;12791;50.992;13.788;2023-08-31T00:10:34;4.60;;;3.97;;
24663;SDS011;12791;50.992;13.788;2023-08-31T00:13:03;4.20;;;3.90;;
24663;SDS011;12791;50.992;13.788;2023-08-31T00:15:31;4.28;;;3.42;;
24663;SDS011;12791;50.992;13.788;2023-08-31T00:18:00;4.00;;;3.70;;
24663;SDS011;12791;50.992;13.788;2023-08-31T00:20:28;3.85;;;3.55;;
24663;SDS011;12791;50.992;13.788;2023-08-31T00:22:55;4.10;;;3.70;;
24663;SDS011;12791;50.992;13.788;2023-08-31T00:25:23;3.80;;;3.50;;
24663;SDS011;12791;50.992;13.788;2023-08-31T00:27:50;3.95;;;3.60;;
24663;SDS011;12791;50.992;13.788;2023-08-31T00:30:18;4.10;;;3.80;;
24663;SDS011;12791;50.992;13.788;2023-08-31T00:32:45;3.80;;;3.60;;
24663;SDS011;12791;50.992;13.788;2023-08-31T00:35:12;3.97;;;3.60;;
24663;SDS011;12791;50.992;13.788;2023-08-31T00:37:39;3.58;;;3.38;;
24663;SDS011;12791;50.992;13.788;2023-08-31T00:40:06;3.78;;;3.58;;
24663;SDS011;12791;50.992;13.788;2023-08-31T00:42:34;3.60;;;3.40;;
24663;SDS011;12791;50.992;13.788;2023-08-31T00:45:02;4.43;;;4.03;;
24663;SDS011;12791;50.992;13.788;2023-08-31T00:47:32;3.95;;;3.60;;
24663;SDS011;12791;50.992;13.788;2023-08-31T00:49:59;3.60;;;3.30;;
24663;SDS011;12791;50.992;13.788;2023-08-31T00:52:26;3.90;;;3.60;;
24663;SDS011;12791;50.992;13.788;2023-08-31T00:54:53;3.55;;;3.25;;
24663;SDS011;12791;50.992;13.788;2023-08-31T00:57:20;2.83;;;2.72;;
24663;SDS011;12791;50.992;13.788;2023-08-31T00:59:47;2.50;;;2.40;;
24663;SDS011;12791;50.992;13.788;2023-08-31T01:02:16;2.50;;;2.40;;
24663;SDS011;12791;50.992;13.788;2023-08-31T01:04:52;2.65;;;2.55;;
24663;SDS011;12791;50.992;13.788;2023-08-31T01:07:31;2.45;;;2.05;;
24663;SDS011;12791;50.992;13.788;2023-08-31T01:10:04;3.55;;;2.40;;
24663;SDS011;12791;50.992;13.788;2023-08-31T01:12:36;2.72;;;2.50;;
24663;SDS011;12791;50.992;13.788;2023-08-31T01:15:10;2.42;;;2.22;;
24663;SDS011;12791;50.992;13.788;2023-08-31T01:17:39;2.47;;;2.35;;
24663;SDS011;12791;50.992;13.788;2023-08-31T01:20:11;2.78;;;2.58;;
24663;SDS011;12791;50.992;13.788;2023-08-31T01:22:43;2.85;;;2.65;;
24663;SDS011;12791;50.992;13.788;2023-08-31T01:25:17;2.80;;;2.70;;
24663;SDS011;12791;50.992;13.788;2023-08-31T01:27:44;2.83;;;2.63;;
24663;SDS011;12791;50.992;13.788;2023-08-31T01:30:11;2.97;;;2.78;;
24663;SDS011;12791;50.992;13.788;2023-08-31T01:32:39;2.90;;;2.70;;
24663;SDS011;12791;50.992;13.788;2023-08-31T01:35:10;2.60;;;2.40;;
24663;SDS011;12791;50.992;13.788;2023-08-31T01:37:39;3.00;;;2.78;;
24663;SDS011;12791;50.992;13.788;2023-08-31T01:40:12;2.75;;;2.60;;
24663;SDS011;12791;50.992;13.788;2023-08-31T01:42:44;2.75;;;2.63;;
24663;SDS011;12791;50.992;13.788;2023-08-31T01:45:14;4.63;;;2.78;;
24663;SDS011;12791;50.992;13.788;2023-08-31T01:47:43;2.88;;;2.38;;
24663;SDS011;12791;50.992;13.788;2023-08-31T01:50:10;2.38;;;2.28;;
24663;SDS011;12791;50.992;13.788;2023-08-31T01:52:37;2.30;;;2.10;;
24663;SDS011;12791;50.992;13.788;2023-08-31T01:55:05;2.42;;;2.30;;
24663;SDS011;12791;50.992;13.788;2023-08-31T01:57:32;2.45;;;2.25;;
24663;SDS011;12791;50.992;13.788;2023-08-31T02:00:01;2.38;;;2.28;;
24663;SDS011;12791;50.992;13.788;2023-08-31T02:02:29;2.05;;;1.95;;
24663;SDS011;12791;50.992;13.788;2023-08-31T02:04:56;2.22;;;2.13;;
24663;SDS011;12791;50.992;13.788;2023-08-31T02:07:26;2.00;;;1.90;;
24663;SDS011;12791;50.992;13.788;2023-08-31T02:09:53;2.10;;;1.88;;
24663;SDS011;12791;50.992;13.788;2023-08-31T02:12:19;2.13;;;2.03;;
24663;SDS011;12791;50.992;13.788;2023-08-31T02:14:46;1.83;;;1.73;;
24663;SDS011;12791;50.992;13.788;2023-08-31T02:17:14;2.08;;;1.98;;
24663;SDS011;12791;50.992;13.788;2023-08-31T02:19:41;2.05;;;1.95;;
24663;SDS011;12791;50.992;13.788;2023-08-31T02:22:08;1.85;;;1.70;;
24663;SDS011;12791;50.992;13.788;2023-08-31T02:24:34;1.80;;;1.70;;
24663;SDS011;12791;50.992;13.788;2023-08-31T02:27:01;1.77;;;1.67;;
24663;SDS011;12791;50.992;13.788;2023-08-31T02:29:28;1.88;;;1.73;;
24663;SDS011;12791;50.992;13.788;2023-08-31T02:31:55;1.77;;;1.67;;
24663;SDS011;12791;50.992;13.788;2023-08-31T02:34:23;1.90;;;1.80;;
24663;SDS011;12791;50.992;13.788;2023-08-31T02:36:49;1.52;;;1.52;;
24663;SDS011;12791;50.992;13.788;2023-08-31T02:39:16;2.13;;;1.80;;
24663;SDS011;12791;50.992;13.788;2023-08-31T02:41:43;1.83;;;1.73;;
24663;SDS011;12791;50.992;13.788;2023-08-31T02:44:10;1.83;;;1.70;;
24663;SDS011;12791;50.992;13.788;2023-08-31T02:46:37;2.33;;;1.63;;
24663;SDS011;12791;50.992;13.788;2023-08-31T02:49:04;1.88;;;1.60;;
24663;SDS011;12791;50.992;13.788;2023-08-31T02:51:32;2.10;;;1.90;;
24663;SDS011;12791;50.992;13.788;2023-08-31T02:53:59;2.10;;;1.60;;
24663;SDS011;12791;50.992;13.788;2023-08-31T02:56:25;2.10;;;2.00;;
24663;SDS011;12791;50.992;13.788;2023-08-31T02:58:52;2.22;;;1.60;;
24663;SDS011;12791;50.992;13.788;2023-08-31T03:01:19;2.08;;;1.90;;
24663;SDS011;12791;50.992;13.788;2023-08-31T03:03:45;1.75;;;1.65;;
24663;SDS011;12791;50.992;13.788;2023-08-31T03:06:12;1.67;;;1.52;;
24663;SDS011;12791;50.992;13.788;2023-08-31T03:08:41;1.88;;;1.77;;
24663;SDS011;12791;50.992;13.788;2023-08-31T03:11:08;1.70;;;1.60;;
24663;SDS011;12791;50.992;13.788;2023-08-31T03:13:34;1.92;;;1.83;;
24663;SDS011;12791;50.992;13.788;2023-08-31T03:16:01;2.63;;;1.88;;
24663;SDS011;12791;50.992;13.788;2023-08-31T03:18:28;1.80;;;1.70;;
24663;SDS011;12791;50.992;13.788;2023-08-31T03:20:55;1.70;;;1.60;;
24663;SDS011;12791;50.992;13.788;2023-08-31T03:23:22;1.70;;;1.60;;
24663;SDS011;12791;50.992;13.788;2023-08-31T03:25:50;1.60;;;1.50;;
24663;SDS011;12791;50.992;13.788;2023-08-31T03:28:16;1.63;;;1.52;;
24663;SDS011;12791;50.992;13.788;2023-08-31T03:30:43;1.50;;;1.40;;
24663;SDS011;12791;50.992;13.788;2023-08-31T03:33:11;1.70;;;1.60;;
24663;SDS011;12791;50.992;13.788;2023-08-31T03:35:38;1.88;;;1.77;;
24663;SDS011;12791;50.992;13.788;2023-08-31T03:38:04;1.60;;;1.50;;
24663;SDS011;12791;50.992;13.788;2023-08-31T03:40:31;1.75;;;1.65;;
24663;SDS011;12791;50.992;13.788;2023-08-31T03:42:59;1.50;;;1.40;;
24663;SDS011;12791;50.992;13.788;2023-08-31T03:45:26;2.30;;;2.10;;
24663;SDS011;12791;50.992;13.788;2023-08-31T03:47:53;1.80;;;1.70;;
24663;SDS011;12791;50.992;13.788;2023-08-31T03:50:19;1.50;;;1.40;;
24663;SDS011;12791;50.992;13.788;2023-08-31T03:52:46;1.58;;;1.52;;
24663;SDS011;12791;50.992;13.788;2023-08-31T03:55:13;1.58;;;1.48;;
24663;SDS011;12791;50.992;13.788;2023-08-31T03:57:39;1.52;;;1.42;;
24663;SDS011;12791;50.992;13.788;2023-08-31T04:00:08;2.72;;;1.20;;
24663;SDS011;12791;50.992;13.788;2023-08-31T04:02:37;1.70;;;1.58;;
24663;SDS011;12791;50.992;13.788;2023-08-31T04:05:04;6.13;;;1.17;;
24663;SDS011;12791;50.992;13.788;2023-08-31T04:07:32;1.73;;;1.00;;
24663;SDS011;12791;50.992;13.788;2023-08-31T04:10:00;1.50;;;1.40;;
24663;SDS011;12791;50.992;13.788;2023-08-31T04:12:27;1.30;;;1.20;;
24663;SDS011;12791;50.992;13.788;2023-08-31T04:14:55;1.00;;;0.90;;
24663;SDS011;12791;50.992;13.788;2023-08-31T04:17:23;1.10;;;1.10;;
24663;SDS011;12791;50.992;13.788;2023-08-31T04:19:51;1.20;;;1.10;;
24663;SDS011;12791;50.992;13.788;2023-08-31T04:22:18;1.98;;;1.20;;
24663;SDS011;12791;50.992;13.788;2023-08-31T04:24:44;1.05;;;0.98;;
24663;SDS011;12791;50.992;13.788;2023-08-31T04:27:11;1.33;;;1.25;;
24663;SDS011;12791;50.992;13.788;2023-08-31T04:29:37;1.08;;;0.98;;
24663;SDS011;12791;50.992;13.788;2023-08-31T04:32:04;1.20;;;1.10;;
24663;SDS011;12791;50.992;13.788;2023-08-31T04:34:33;1.35;;;1.00;;
24663;SDS011;12791;50.992;13.788;2023-08-31T04:37:00;1.70;;;1.10;;
24663;SDS011;12791;50.992;13.788;2023-08-31T04:39:27;2.45;;;1.10;;
24663;SDS011;12791;50.992;13.788;2023-08-31T04:41:54;1.33;;;1.27;;
24663;SDS011;12791;50.992;13.788;2023-08-31T04:44:20;1.00;;;1.00;;
24663;SDS011;12791;50.992;13.788;2023-08-31T04:46:47;1.20;;;1.08;;
24663;SDS011;12791;50.992;13.788;2023-08-31T04:49:14;1.77;;;1.23;;
24663;SDS011;12791;50.992;13.788;2023-08-31T04:51:43;1.42;;;1.33;;
24663;SDS011;12791;50.992;13.788;2023-08-31T04:54:10;1.30;;;1.20;;
24663;SDS011;12791;50.992;13.788;2023-08-31T04:56:37;1.58;;;1.48;;
24663;SDS011;12791;50.992;13.788;2023-08-31T04:59:04;1.75;;;1.65;;
24663;SDS011;12791;50.992;13.788;2023-08-31T05:01:30;1.40;;;1.30;;
24663;SDS011;12791;50.992;13.788;2023-08-31T05:03:57;2.25;;;1.25;;
24663;SDS011;12791;50.992;13.788;2023-08-31T05:06:24;1.13;;;1.13;;
24663;SDS011;12791;50.992;13.788;2023-08-31T05:08:52;1.60;;;1.50;;
24663;SDS011;12791;50.992;13.788;2023-08-31T05:11:19;1.48;;;1.38;;
24663;SDS011;12791;50.992;13.788;2023-08-31T05:13:46;1.55;;;1.45;;
24663;SDS011;12791;50.992;13.788;2023-08-31T05:16:13;1.27;;;1.15;;
24663;SDS011;12791;50.992;13.788;2023-08-31T05:18:40;1.88;;;1.20;;
24663;SDS011;12791;50.992;13.788;2023-08-31T05:21:06;1.10;;;1.05;;
24663;SDS011;12791;50.992;13.788;2023-08-31T05:23:33;1.27;;;1.27;;
24663;SDS011;12791;50.992;13.788;2023-08-31T05:26:01;2.00;;;1.33;;
24663;SDS011;12791;50.992;13.788;2023-08-31T05:28:28;1.60;;;1.50;;
24663;SDS011;12791;50.992;13.788;2023-08-31T05:30:55;3.20;;;1.50;;
24663;SDS011;12791;50.992;13.788;2023-08-31T05:33:23;1.80;;;1.60;;
24663;SDS011;12791;50.992;13.788;2023-08-31T05:35:52;2.25;;;1.50;;
24663;SDS011;12791;50.992;13.788;2023-08-31T05:38:19;1.50;;;1.40;;
24663;SDS011;12791;50.992;13.788;2023-08-31T05:40:46;2.03;;;1.77;;
24663;SDS011;12791;50.992;13.788;2023-08-31T05:43:14;2.13;;;1.75;;
24663;SDS011;12791;50.992;13.788;2023-08-31T05:45:41;1.60;;;1.50;;
24663;SDS011;12791;50.992;13.788;2023-08-31T05:48:08;2.92;;;1.90;;
24663;SDS011;12791;50.992;13.788;2023-08-31T05:50:35;2.10;;;1.90;;
24663;SDS011;12791;50.992;13.788;2023-08-31T05:53:02;1.95;;;1.75;;
24663;SDS011;12791;50.992;13.788;2023-08-31T05:55:30;1.52;;;1.42;;
24663;SDS011;12791;50.992;13.788;2023-08-31T05:57:57;1.80;;;1.70;;
24663;SDS011;12791;50.992;13.788;2023-08-31T06:00:26;1.42;;;1.33;;
24663;SDS011;12791;50.992;13.788;2023-08-31T06:02:53;1.80;;;1.45;;
24663;SDS011;12791;50.992;13.788;2023-08-31T06:05:20;1.73;;;1.30;;
24663;SDS011;12791;50.992;13.788;2023-08-31T06:07:46;4.00;;;1.60;;
24663;SDS011;12791;50.992;13.788;2023-08-31T06:10:13;1.95;;;1.58;;
24663;SDS011;12791;50.992;13.788;2023-08-31T06:12:40;2.90;;;1.50;;
24663;SDS011;12791;50.992;13.788;2023-08-31T06:15:07;1.13;;;1.10;;
24663;SDS011;12791;50.992;13.788;2023-08-31T06:17:35;1.27;;;1.17;;
24663;SDS011;12791;50.992;13.788;2023-08-31T06:20:02;1.48;;;1.38;;
24663;SDS011;12791;50.992;13.788;2023-08-31T06:22:31;1.35;;;1.27;;
24663;SDS011;12791;50.992;13.788;2023-08-31T06:24:57;1.55;;;1.30;;
24663;SDS011;12791;50.992;13.788;2023-08-31T06:27:24;2.20;;;1.65;;
24663;SDS011;12791;50.992;13.788;2023-08-31T06:29:51;2.08;;;1.42;;
24663;SDS011;12791;50.992;13.788;2023-08-31T06:32:18;1.42;;;1.30;;
24663;SDS011;12791;50.992;13.788;2023-08-31T06:34:46;1.73;;;1.63;;
24663;SDS011;12791;50.992;13.788;2023-08-31T06:37:12;1.20;;;1.10;;
24663;SDS011;12791;50.992;13.788;2023-08-31T06:39:39;2.45;;;1.63;;
24663;SDS011;12791;50.992;13.788;2023-08-31T06:42:06;2.20;;;2.10;;
24663;SDS011;12791;50.992;13.788;2023-08-31T06:44:33;2.00;;;1.75;;
24663;SDS011;12791;50.992;13.788;2023-08-31T06:47:00;2.30;;;1.80;;
24663;SDS011;12791;50.992;13.788;2023-08-31T06:49:28;2.60;;;1.70;;
24663;SDS011;12791;50.992;13.788;2023-08-31T06:51:59;2.15;;;1.95;;
24663;SDS011;12791;50.992;13.788;2023-08-31T06:54:27;3.83;;;2.15;;
24663;SDS011;12791;50.992;13.788;2023-08-31T06:56:54;3.13;;;2.67;;
24663;SDS011;12791;50.992;13.788;2023-08-31T06:59:20;3.72;;;2.20;;
24663;SDS011;12791;50.992;13.788;2023-08-31T07:01:47;3.08;;;2.47;;
24663;SDS011;12791;50.992;13.788;2023-08-31T07:04:14;4.32;;;2.08;;
24663;SDS011;12791;50.992;13.788;2023-08-31T07:06:40;2.38;;;1.95;;
24663;SDS011;12791;50.992;13.788;2023-08-31T07:09:08;2.72;;;2.13;;
24663;SDS011;12791;50.992;13.788;2023-08-31T07:11:35;1.98;;;1.80;;
24663;SDS011;12791;50.992;13.788;2023-08-31T07:14:02;2.13;;;1.92;;
24663;SDS011;12791;50.992;13.788;2023-08-31T07:16:28;2.92;;;1.60;;
24663;SDS011;12791;50.992;13.788;2023-08-31T07:18:55;1.90;;;1.65;;
24663;SDS011;12791;50.992;13.788;2023-08-31T07:21:22;2.00;;;1.52;;
24663;SDS011;12791;50.992;13.788;2023-08-31T07:23:48;1.92;;;1.60;;
24663;SDS011;12791;50.992;13.788;2023-08-31T07:26:16;1.55;;;1.45;;
24663;SDS011;12791;50.992;13.788;2023-08-31T07:28:43;1.58;;;1.48;;
24663;SDS011;12791;50.992;13.788;2023-08-31T07:31:10;1.58;;;1.48;;
24663;SDS011;12791;50.992;13.788;2023-08-31T07:33:36;1.80;;;1.60;;
24663;SDS011;12791;50.992;13.788;2023-08-31T07:36:03;1.60;;;1.45;;
24663;SDS011;12791;50.992;13.788;2023-08-31T07:38:31;1.52;;;1.42;;
24663;SDS011;12791;50.992;13.788;2023-08-31T07:40:58;1.60;;;1.50;;
24663;SDS011;12791;50.992;13.788;2023-08-31T07:43:26;1.95;;;1.20;;
24663;SDS011;12791;50.992;13.788;2023-08-31T07:45:54;1.33;;;1.23;;
24663;SDS011;12791;50.992;13.788;2023-08-31T07:48:21;2.75;;;1.55;;
24663;SDS011;12791;50.992;13.788;2023-08-31T07:50:48;1.17;;;1.08;;
24663;SDS011;12791;50.992;13.788;2023-08-31T07:53:14;1.08;;;1.08;;
24663;SDS011;12791;50.992;13.788;2023-08-31T07:55:50;1.60;;;1.30;;
24663;SDS011;12791;50.992;13.788;2023-08-31T07:58:17;1.88;;;1.25;;
24663;SDS011;12791;50.992;13.788;2023-08-31T08:00:46;1.88;;;1.30;;
24663;SDS011;12791;50.992;13.788;2023-08-31T08:03:13;2.70;;;1.65;;
24663;SDS011;12791;50.992;13.788;2023-08-31T08:05:39;1.30;;;1.08;;
24663;SDS011;12791;50.992;13.788;2023-08-31T08:08:06;2.05;;;1.40;;
24663;SDS011;12791;50.992;13.788;2023-08-31T08:10:33;1.45;;;1.30;;
24663;SDS011;12791;50.992;13.788;2023-08-31T08:12:59;1.65;;;1.30;;
24663;SDS011;12791;50.992;13.788;2023-08-31T08:15:26;2.45;;;1.20;;
24663;SDS011;12791;50.992;13.788;2023-08-31T08:17:54;1.50;;;1.20;;
24663;SDS011;12791;50.992;13.788;2023-08-31T08:20:22;1.67;;;1.10;;
24663;SDS011;12791;50.992;13.788;2023-08-31T08:22:48;1.50;;;1.00;;
24663;SDS011;12791;50.992;13.788;2023-08-31T08:25:17;1.67;;;1.08;;
24663;SDS011;12791;50.992;13.788;2023-08-31T08:27:44;2.70;;;1.33;;
24663;SDS011;12791;50.992;13.788;2023-08-31T08:30:11;1.20;;;1.08;;
24663;SDS011;12791;50.992;13.788;2023-08-31T08:32:38;1.45;;;1.20;;
24663;SDS011;12791;50.992;13.788;2023-08-31T08:35:07;1.60;;;1.10;;
24663;SDS011;12791;50.992;13.788;2023-08-31T08:37:34;1.55;;;1.00;;
24663;SDS011;12791;50.992;13.788;2023-08-31T08:40:01;1.35;;;1.05;;
24663;SDS011;12791;50.992;13.788;2023-08-31T08:42:29;2.05;;;1.25;;
24663;SDS011;12791;50.992;13.788;2023-08-31T08:44:56;1.65;;;1.00;;
24663;SDS011;12791;50.992;13.788;2023-08-31T08:47:23;1.30;;;1.10;;
24663;SDS011;12791;50.992;13.788;2023-08-31T08:49:51;1.10;;;1.00;;
24663;SDS011;12791;50.992;13.788;2023-08-31T08:52:20;1.65;;;1.20;;
24663;SDS011;12791;50.992;13.788;2023-08-31T08:54:47;2.75;;;1.67;;
24663;SDS011;12791;50.992;13.788;2023-08-31T08:57:15;1.95;;;1.08;;
24663;SDS011;12791;50.992;13.788;2023-08-31T08:59:42;1.20;;;1.00;;
24663;SDS011;12791;50.992;13.788;2023-08-31T09:02:09;1.88;;;1.23;;
24663;SDS011;12791;50.992;13.788;2023-08-31T09:04:37;2.25;;;1.00;;
24663;SDS011;12791;50.992;13.788;2023-08-31T09:07:04;1.77;;;1.10;;
24663;SDS011;12791;50.992;13.788;2023-08-31T09:09:32;1.08;;;1.05;;
24663;SDS011;12791;50.992;13.788;2023-08-31T09:12:13;1.50;;;1.00;;
24663;SDS011;12791;50.992;13.788;2023-08-31T09:14:40;1.10;;;1.00;;
24663;SDS011;12791;50.992;13.788;2023-08-31T09:17:07;0.90;;;0.90;;
24663;SDS011;12791;50.992;13.788;2023-08-31T09:19:33;1.00;;;0.93;;
24663;SDS011;12791;50.992;13.788;2023-08-31T09:22:00;2.15;;;0.82;;
24663;SDS011;12791;50.992;13.788;2023-08-31T09:24:27;2.03;;;0.80;;
24663;SDS011;12791;50.992;13.788;2023-08-31T09:26:56;0.95;;;0.73;;
24663;SDS011;12791;50.992;13.788;2023-08-31T09:29:24;0.80;;;0.80;;
24663;SDS011;12791;50.992;13.788;2023-08-31T09:31:50;3.22;;;0.95;;
24663;SDS011;12791;50.992;13.788;2023-08-31T09:34:17;1.33;;;0.82;;
24663;SDS011;12791;50.992;13.788;2023-08-31T09:36:44;0.88;;;0.68;;
24663;SDS011;12791;50.992;13.788;2023-08-31T09:39:12;2.25;;;1.15;;
24663;SDS011;12791;50.992;13.788;2023-08-31T09:41:52;1.48;;;0.88;;
24663;SDS011;12791;50.992;13.788;2023-08-31T09:44:20;0.80;;;0.80;;
24663;SDS011;12791;50.992;13.788;2023-08-31T09:46:48;3.15;;;1.00;;
24663;SDS011;12791;50.992;13.788;2023-08-31T09:49:15;1.15;;;1.00;;
24663;SDS011;12791;50.992;13.788;2023-08-31T09:51:43;1.40;;;1.00;;
24663;SDS011;12791;50.992;13.788;2023-08-31T09:54:12;0.95;;;0.77;;
24663;SDS011;12791;50.992;13.788;2023-08-31T09:56:40;0.82;;;0.70;;
24663;SDS011;12791;50.992;13.788;2023-08-31T09:59:08;1.00;;;0.90;;
24663;SDS011;12791;50.992;13.788;2023-08-31T10:01:37;3.28;;;1.17;;
24663;SDS011;12791;50.992;13.788;2023-08-31T10:04:04;1.60;;;0.80;;
24663;SDS011;12791;50.992;13.788;2023-08-31T10:06:33;1.00;;;0.88;;
24663;SDS011;12791;50.992;13.788;2023-08-31T10:09:00;1.67;;;1.00;;
24663;SDS011;12791;50.992;13.788;2023-08-31T10:11:28;0.80;;;0.80;;
24663;SDS011;12791;50.992;13.788;2023-08-31T10:13:55;0.85;;;0.70;;
24663;SDS011;12791;50.992;13.788;2023-08-31T10:16:24;1.58;;;0.80;;
24663;SDS011;12791;50.992;13.788;2023-08-31T10:18:53;0.52;;;0.52;;
24663;SDS011;12791;50.992;13.788;2023-08-31T10:21:21;1.65;;;0.90;;
24663;SDS011;12791;50.992;13.788;2023-08-31T10:23:48;0.70;;;0.70;;
24663;SDS011;12791;50.992;13.788;2023-08-31T10:26:22;0.65;;;0.57;;
24663;SDS011;12791;50.992;13.788;2023-08-31T10:28:50;1.83;;;0.68;;
24663;SDS011;12791;50.992;13.788;2023-08-31T10:31:18;0.93;;;0.70;;
24663;SDS011;12791;50.992;13.788;2023-08-31T10:33:47;0.90;;;0.65;;
24663;SDS011;12791;50.992;13.788;2023-08-31T10:36:34;0.70;;;0.70;;
24663;SDS011;12791;50.992;13.788;2023-08-31T10:39:05;0.88;;;0.70;;
24663;SDS011;12791;50.992;13.788;2023-08-31T10:41:36;1.25;;;0.73;;
24663;SDS011;12791;50.992;13.788;2023-08-31T10:44:17;0.50;;;0.50;;
24663;SDS011;12791;50.992;13.788;2023-08-31T10:46:45;1.23;;;0.70;;
24663;SDS011;12791;50.992;13.788;2023-08-31T10:49:14;0.60;;;0.60;;
24663;SDS011;12791;50.992;13.788;2023-08-31T10:51:43;1.33;;;0.63;;
24663;SDS011;12791;50.992;13.788;2023-08-31T10:54:11;0.63;;;0.60;;
24663;SDS011;12791;50.992;13.788;2023-08-31T10:56:51;1.75;;;0.70;;
24663;SDS011;12791;50.992;13.788;2023-08-31T10:59:40;1.02;;;0.60;;
24663;SDS011;12791;50.992;13.788;2023-08-31T11:02:28;1.67;;;0.70;;
24663;SDS011;12791;50.992;13.788;2023-08-31T11:05:02;1.67;;;0.63;;
24663;SDS011;12791;50.992;13.788;2023-08-31T11:07:33;0.60;;;0.60;;
24663;SDS011;12791;50.992;13.788;2023-08-31T11:10:13;1.20;;;0.63;;
24663;SDS011;12791;50.992;13.788;2023-08-31T11:12:42;0.73;;;0.60;;
24663;SDS011;12791;50.992;13.788;2023-08-31T11:15:13;1.02;;;0.70;;
24663;SDS011;12791;50.992;13.788;2023-08-31T11:17:40;0.57;;;0.57;;
24663;SDS011;12791;50.992;13.788;2023-08-31T11:20:09;1.95;;;0.90;;
24663;SDS011;12791;50.992;13.788;2023-08-31T11:22:40;1.88;;;0.93;;
24663;SDS011;12791;50.992;13.788;2023-08-31T11:25:08;2.08;;;0.88;;
24663;SDS011;12791;50.992;13.788;2023-08-31T11:27:37;1.13;;;0.80;;
24663;SDS011;12791;50.992;13.788;2023-08-31T11:30:04;1.20;;;0.70;;
24663;SDS011;12791;50.992;13.788;2023-08-31T11:32:43;2.65;;;0.63;;
24663;SDS011;12791;50.992;13.788;2023-08-31T11:35:11;1.00;;;0.60;;
24663;SDS011;12791;50.992;13.788;2023-08-31T11:37:38;0.73;;;0.47;;
24663;SDS011;12791;50.992;13.788;2023-08-31T11:40:05;1.13;;;0.47;;
24663;SDS011;12791;50.992;13.788;2023-08-31T11:42:34;3.80;;;0.50;;
24663;SDS011;12791;50.992;13.788;2023-08-31T11:45:00;1.27;;;0.50;;
24663;SDS011;12791;50.992;13.788;2023-08-31T11:47:30;1.25;;;0.60;;
24663;SDS011;12791;50.992;13.788;2023-08-31T11:49:57;0.40;;;0.40;;
24663;SDS011;12791;50.992;13.788;2023-08-31T11:52:25;2.10;;;0.50;;
24663;SDS011;12791;50.992;13.788;2023-08-31T11:54:52;1.65;;;0.40;;
24663;SDS011;12791;50.992;13.788;2023-08-31T11:57:20;0.50;;;0.40;;
24663;SDS011;12791;50.992;13.788;2023-08-31T11:59:53;1.50;;;0.43;;
24663;SDS011;12791;50.992;13.788;2023-08-31T12:02:21;0.57;;;0.50;;
24663;SDS011;12791;50.992;13.788;2023-08-31T12:04:47;0.57;;;0.57;;
24663;SDS011;12791;50.992;13.788;2023-08-31T12:07:15;1.75;;;0.50;;
24663;SDS011;12791;50.992;13.788;2023-08-31T12:09:44;0.40;;;0.40;;
24663;SDS011;12791;50.992;13.788;2023-08-31T12:12:13;1.50;;;0.70;;
24663;SDS011;12791;50.992;13.788;2023-08-31T12:14:40;1.83;;;0.80;;
24663;SDS011;12791;50.992;13.788;2023-08-31T12:17:07;0.80;;;0.50;;
24663;SDS011;12791;50.992;13.788;2023-08-31T12:19:36;0.73;;;0.63;;
24663;SDS011;12791;50.992;13.788;2023-08-31T12:22:04;1.23;;;0.55;;
24663;SDS011;12791;50.992;13.788;2023-08-31T12:24:36;0.80;;;0.60;;
24663;SDS011;12791;50.992;13.788;2023-08-31T12:27:05;2.63;;;0.73;;
24663;SDS011;12791;50.992;13.788;2023-08-31T12:29:31;0.60;;;0.60;;
24663;SDS011;12791;50.992;13.788;2023-08-31T12:31:58;1.35;;;0.60;;
24663;SDS011;12791;50.992;13.788;2023-08-31T12:34:25;1.15;;;0.60;;
24663;SDS011;12791;50.992;13.788;2023-08-31T12:36:51;0.88;;;0.52;;
24663;SDS011;12791;50.992;13.788;2023-08-31T12:39:18;0.60;;;0.60;;
24663;SDS011;12791;50.992;13.788;2023-08-31T12:41:45;1.05;;;0.77;;
24663;SDS011;12791;50.992;13.788;2023-08-31T12:44:13;0.80;;;0.60;;
24663;SDS011;12791;50.992;13.788;2023-08-31T12:46:40;0.60;;;0.60;;
24663;SDS011;12791;50.992;13.788;2023-08-31T12:49:06;0.43;;;0.43;;
24663;SDS011;12791;50.992;13.788;2023-08-31T12:51:33;0.60;;;0.60;;
24663;SDS011;12791;50.992;13.788;2023-08-31T12:53:59;0.80;;;0.50;;
24663;SDS011;12791;50.992;13.788;2023-08-31T12:56:26;1.40;;;0.50;;
24663;SDS011;12791;50.992;13.788;2023-08-31T12:58:53;0.40;;;0.40;;
24663;SDS011;12791;50.992;13.788;2023-08-31T13:01:21;0.60;;;0.60;;
24663;SDS011;12791;50.992;13.788;2023-08-31T13:03:48;0.82;;;0.63;;
24663;SDS011;12791;50.992;13.788;2023-08-31T13:06:15;2.22;;;0.63;;
24663;SDS011;12791;50.992;13.788;2023-08-31T13:08:42;0.70;;;0.70;;
24663;SDS011;12791;50.992;13.788;2023-08-31T13:11:09;2.05;;;0.60;;
24663;SDS011;12791;50.992;13.788;2023-08-31T13:13:37;0.60;;;0.60;;
24663;SDS011;12791;50.992;13.788;2023-08-31T13:16:04;0.82;;;0.70;;
24663;SDS011;12791;50.992;13.788;2023-08-31T13:18:32;1.65;;;0.70;;
24663;SDS011;12791;50.992;13.788;2023-08-31T13:20:59;0.75;;;0.75;;
24663;SDS011;12791;50.992;13.788;2023-08-31T13:23:26;0.70;;;0.70;;
24663;SDS011;12791;50.992;13.788;2023-08-31T13:25:53;0.60;;;0.60;;
24663;SDS011;12791;50.992;13.788;2023-08-31T13:28:21;0.70;;;0.60;;
24663;SDS011;12791;50.992;13.788;2023-08-31T13:30:48;0.50;;;0.47;;
24663;SDS011;12791;50.992;13.788;2023-08-31T13:33:14;0.75;;;0.50;;
24663;SDS011;12791;50.992;13.788;2023-08-31T13:35:42;0.40;;;0.40;;
24663;SDS011;12791;50.992;13.788;2023-08-31T13:38:11;1.02;;;0.60;;
24663;SDS011;12791;50.992;13.788;2023-08-31T13:40:38;0.50;;;0.50;;
24663;SDS011;12791;50.992;13.788;2023-08-31T13:43:05;0.65;;;0.50;;
24663;SDS011;12791;50.992;13.788;2023-08-31T13:45:32;0.40;;;0.40;;
24663;SDS011;12791;50.992;13.788;2023-08-31T13:47:59;0.77;;;0.47;;
24663;SDS011;12791;50.992;13.788;2023-08-31T13:50:25;0.40;;;0.40;;
24663;SDS011;12791;50.992;13.788;2023-08-31T13:52:54;1.08;;;0.60;;
24663;SDS011;12791;50.992;13.788;2023-08-31T13:55:21;0.57;;;0.57;;
24663;SDS011;12791;50.992;13.788;2023-08-31T13:57:48;0.52;;;0.52;;
24663;SDS011;12791;50.992;13.788;2023-08-31T14:00:15;0.57;;;0.50;;
24663;SDS011;12791;50.992;13.788;2023-08-31T14:02:42;0.50;;;0.50;;
24663;SDS011;12791;50.992;13.788;2023-08-31T14:05:09;0.60;;;0.60;;
24663;SDS011;12791;50.992;13.788;2023-08-31T14:07:36;1.15;;;0.60;;
24663;SDS011;12791;50.992;13.788;2023-08-31T14:10:05;0.80;;;0.80;;
24663;SDS011;12791;50.992;13.788;2023-08-31T14:12:32;0.70;;;0.70;;
24663;SDS011;12791;50.992;13.788;2023-08-31T14:14:59;1.20;;;0.70;;
24663;SDS011;12791;50.992;13.788;2023-08-31T14:17:29;0.73;;;0.73;;
24663;SDS011;12791;50.992;13.788;2023-08-31T14:19:56;0.90;;;0.85;;
24663;SDS011;12791;50.992;13.788;2023-08-31T14:22:24;3.00;;;0.80;;
24663;SDS011;12791;50.992;13.788;2023-08-31T14:24:51;0.70;;;0.70;;
24663;SDS011;12791;50.992;13.788;2023-08-31T14:27:19;1.42;;;0.80;;
24663;SDS011;12791;50.992;13.788;2023-08-31T14:29:45;4.28;;;1.52;;
24663;SDS011;12791;50.992;13.788;2023-08-31T14:32:12;4.82;;;1.30;;
24663;SDS011;12791;50.992;13.788;2023-08-31T14:34:39;2.80;;;1.23;;
24663;SDS011;12791;50.992;13.788;2023-08-31T14:37:06;1.85;;;1.00;;